RYR6RR EGSS-LEAM
Flight info
| Callsign | RYR6RR |
|---|---|
| Flight time | N/A |
| Altitude | 37000 |
| Route | NUGBO M183 SILVA Q41 COWLY UT71 VAPID UN859 SOPIL DCT BALAN DCT LMG DCT PIMQO DCT AGN DCT ANETO N860 DOSEK |
| Aircraft | B38M/M-SDE1FGHILORVWXY/HB1 |
Departure
| Time | N/A |
|---|---|
| Airport | London Stansted Airport (EGSS) |
Arrival
| Time | 2026-04-15 16:18 |
|---|---|
| Airport | Almería Airport (LEAM) |
| Time | Latitude | Longitude | Altitude | Speed | Heading |
|---|---|---|---|---|---|
| 2026-04-15 15:59 | 37.77594 | -1.64323 | 18898 ft | 342 kts | 210° |
| 2026-04-15 16:00 | 37.75474 | -1.65699 | 18564 ft | 342 kts | 210° |
| 2026-04-15 16:00 | 37.73357 | -1.67073 | 18199 ft | 342 kts | 210° |
| 2026-04-15 16:00 | 37.71251 | -1.68439 | 17823 ft | 340 kts | 210° |
| 2026-04-15 16:00 | 37.70815 | -1.68721 | 17762 ft | 339 kts | 210° |
| 2026-04-15 16:01 | 37.70097 | -1.69186 | 17634 ft | 339 kts | 210° |
| 2026-04-15 16:02 | 37.68006 | -1.70541 | 17296 ft | 336 kts | 210° |
| 2026-04-15 16:02 | 37.65935 | -1.71882 | 16966 ft | 333 kts | 210° |
| 2026-04-15 16:02 | 37.63879 | -1.73213 | 16633 ft | 331 kts | 210° |
| 2026-04-15 16:02 | 37.61833 | -1.74537 | 16309 ft | 329 kts | 210° |
| 2026-04-15 16:03 | 37.59799 | -1.75851 | 15970 ft | 328 kts | 210° |
| 2026-04-15 16:03 | 37.57775 | -1.77158 | 15646 ft | 326 kts | 210° |
| 2026-04-15 16:03 | 37.55758 | -1.78461 | 15309 ft | 325 kts | 210° |
| 2026-04-15 16:03 | 37.53749 | -1.79758 | 14981 ft | 324 kts | 209° |
| 2026-04-15 16:04 | 37.51745 | -1.81049 | 14656 ft | 323 kts | 209° |
| 2026-04-15 16:04 | 37.49749 | -1.82336 | 14330 ft | 322 kts | 209° |
| 2026-04-15 16:04 | 37.47754 | -1.83621 | 13994 ft | 322 kts | 209° |
| 2026-04-15 16:04 | 37.45762 | -1.84904 | 13622 ft | 321 kts | 209° |
| 2026-04-15 16:05 | 37.43775 | -1.86181 | 13277 ft | 320 kts | 209° |
| 2026-04-15 16:05 | 37.41798 | -1.87452 | 12938 ft | 318 kts | 209° |
| 2026-04-15 16:05 | 37.39836 | -1.88712 | 12611 ft | 316 kts | 209° |
| 2026-04-15 16:05 | 37.37881 | -1.89967 | 12284 ft | 315 kts | 209° |
| 2026-04-15 16:06 | 37.35939 | -1.91215 | 11956 ft | 313 kts | 209° |
| 2026-04-15 16:06 | 37.34000 | -1.92459 | 11636 ft | 312 kts | 209° |
| 2026-04-15 16:06 | 37.32067 | -1.93696 | 11316 ft | 311 kts | 209° |
| 2026-04-15 16:06 | 37.30144 | -1.94928 | 10982 ft | 310 kts | 209° |
| 2026-04-15 16:07 | 37.28252 | -1.96140 | 10670 ft | 309 kts | 209° |
| 2026-04-15 16:07 | 37.26342 | -1.97364 | 10344 ft | 308 kts | 209° |
| 2026-04-15 16:07 | 37.22621 | -1.99810 | 9757 ft | 299 kts | 210° |
| 2026-04-15 16:08 | 37.20786 | -2.01040 | 9398 ft | 299 kts | 210° |
| 2026-04-15 16:08 | 37.18951 | -2.02265 | 9050 ft | 299 kts | 210° |
| 2026-04-15 16:08 | 37.17120 | -2.03488 | 8702 ft | 298 kts | 210° |
| 2026-04-15 16:08 | 37.15303 | -2.04697 | 8363 ft | 292 kts | 210° |
| 2026-04-15 16:09 | 37.13538 | -2.05874 | 8049 ft | 284 kts | 210° |
| 2026-04-15 16:09 | 37.11791 | -2.07037 | 7713 ft | 284 kts | 210° |
| 2026-04-15 16:09 | 37.10049 | -2.08197 | 7407 ft | 283 kts | 210° |
| 2026-04-15 16:09 | 37.08262 | -2.09200 | 7047 ft | 283 kts | 194° |
| 2026-04-15 16:10 | 37.06298 | -2.09356 | 6670 ft | 287 kts | 180° |
| 2026-04-15 16:10 | 37.04298 | -2.09349 | 6330 ft | 288 kts | 180° |
| 2026-04-15 16:10 | 37.02292 | -2.09361 | 5960 ft | 288 kts | 181° |
| 2026-04-15 16:10 | 37.00340 | -2.09373 | 5665 ft | 278 kts | 181° |
| 2026-04-15 16:11 | 36.98436 | -2.09387 | 5305 ft | 270 kts | 180° |
| 2026-04-15 16:11 | 36.96609 | -2.09401 | 4943 ft | 255 kts | 181° |
| 2026-04-15 16:11 | 36.94887 | -2.09413 | 4612 ft | 240 kts | 181° |
| 2026-04-15 16:11 | 36.93271 | -2.09424 | 4347 ft | 225 kts | 182° |
| 2026-04-15 16:12 | 36.91818 | -2.09837 | 4022 ft | 207 kts | 213° |
| 2026-04-15 16:12 | 36.90922 | -2.11079 | 3794 ft | 181 kts | 244° |
| 2026-04-15 16:12 | 36.90486 | -2.12422 | 3612 ft | 154 kts | 247° |
| 2026-04-15 16:12 | 36.90127 | -2.13632 | 3422 ft | 146 kts | 249° |
| 2026-04-15 16:13 | 36.89818 | -2.14831 | 3289 ft | 144 kts | 252° |
| 2026-04-15 16:13 | 36.89527 | -2.16021 | 3127 ft | 144 kts | 253° |
| 2026-04-15 16:13 | 36.89236 | -2.17213 | 2989 ft | 144 kts | 252° |
| 2026-04-15 16:13 | 36.88947 | -2.18405 | 2837 ft | 143 kts | 252° |
| 2026-04-15 16:14 | 36.88656 | -2.19594 | 2709 ft | 144 kts | 251° |
| 2026-04-15 16:14 | 36.88367 | -2.20783 | 2529 ft | 142 kts | 251° |
| 2026-04-15 16:14 | 36.88082 | -2.21956 | 2353 ft | 140 kts | 250° |
| 2026-04-15 16:14 | 36.87797 | -2.23117 | 2179 ft | 139 kts | 251° |
| 2026-04-15 16:15 | 36.87512 | -2.24279 | 1972 ft | 141 kts | 251° |
| 2026-04-15 16:15 | 36.87228 | -2.25447 | 1750 ft | 141 kts | 250° |
| 2026-04-15 16:15 | 36.86932 | -2.26596 | 1521 ft | 142 kts | 254° |
| 2026-04-15 16:15 | 36.86654 | -2.27783 | 1296 ft | 143 kts | 252° |
| 2026-04-15 16:16 | 36.86361 | -2.28971 | 1091 ft | 144 kts | 252° |
| 2026-04-15 16:16 | 36.86078 | -2.30185 | 920 ft | 146 kts | 254° |
| 2026-04-15 16:16 | 36.85802 | -2.31417 | 748 ft | 148 kts | 256° |
| 2026-04-15 16:16 | 36.85492 | -2.32636 | 523 ft | 146 kts | 249° |
| 2026-04-15 16:17 | 36.85166 | -2.33860 | 325 ft | 151 kts | 251° |
| 2026-04-15 16:17 | 36.84861 | -2.35119 | 127 ft | 149 kts | 251° |
| 2026-04-15 16:17 | 36.84575 | -2.36283 | 60 ft | 125 kts | 252° |
| 2026-04-15 16:17 | 36.84389 | -2.37034 | 60 ft | 58 kts | 254° |
| 2026-04-15 16:18 | 36.84288 | -2.37443 | 63 ft | 49 kts | 253° |
| 2026-04-15 16:18 | 36.84200 | -2.37828 | 65 ft | 36 kts | 258° |
| 2026-04-15 16:18 | 36.84211 | -2.38090 | 63 ft | 18 kts | 281° |
| 2026-04-15 16:18 | 36.84237 | -2.38183 | 64 ft | 7 kts | 319° |
| 2026-04-15 16:19 | 36.84278 | -2.38177 | 68 ft | 7 kts | 50° |
| 2026-04-15 16:19 | 36.84296 | -2.38124 | 62 ft | 7 kts | 74° |
| 2026-04-15 16:19 | 36.84314 | -2.38050 | 64 ft | 11 kts | 73° |
| 2026-04-15 16:19 | 36.84340 | -2.37944 | 61 ft | 15 kts | 72° |
| 2026-04-15 16:20 | 36.84378 | -2.37790 | 67 ft | 23 kts | 72° |
| 2026-04-15 16:20 | 36.84430 | -2.37576 | 64 ft | 27 kts | 73° |
| 2026-04-15 16:20 | 36.84485 | -2.37493 | 69 ft | 9 kts | 356° |
| 2026-04-15 16:20 | 36.84511 | -2.37492 | 69 ft | 4 kts | 19° |
| 2026-04-15 16:21 | 36.84541 | -2.37429 | 62 ft | 12 kts | 71° |
| 2026-04-15 16:21 | 36.84572 | -2.37349 | 70 ft | 5 kts | 26° |
| 2026-04-15 16:21 | 36.84607 | -2.37351 | 71 ft | 6 kts | 346° |
| 2026-04-15 16:21 | 36.84645 | -2.37356 | 72 ft | 3 kts | 31° |
| 2026-04-15 16:22 | 36.84645 | -2.37352 | 72 ft | 0 kts | 67° |
| 2026-04-15 16:22 | 36.84643 | -2.37349 | 72 ft | 0 kts | 118° |
| 2026-04-15 16:22 | 36.84636 | -2.37338 | 66 ft | 1 kts | 122° |
| 2026-04-15 16:22 | 36.84633 | -2.37331 | 72 ft | 1 kts | 123° |
| 2026-04-15 16:23 | 36.84632 | -2.37329 | 72 ft | 0 kts | 123° |